createdAt,value
2019-04-16T00:01:32.514Z,49.00
2019-04-16T00:04:07.659Z,45.25
2019-04-16T00:06:55.628Z,42.25
2019-04-16T00:09:38.600Z,55.25
2019-04-16T00:12:22.753Z,51.75
2019-04-16T00:17:20.635Z,50.50
2019-04-16T00:19:49.612Z,53.75
2019-04-16T00:22:27.669Z,58.50
2019-04-16T00:24:57.741Z,50.00
2019-04-16T00:27:28.715Z,59.00
2019-04-16T00:29:58.716Z,49.25
2019-04-16T00:32:31.105Z,42.50
2019-04-16T00:35:00.287Z,46.75
2019-04-16T00:37:29.311Z,52.00
2019-04-16T00:39:58.393Z,48.25
2019-04-16T00:42:27.442Z,42.75
2019-04-16T00:44:56.537Z,54.00
2019-04-16T00:47:25.656Z,58.75
2019-04-16T00:49:57.560Z,50.25
2019-04-16T00:52:25.560Z,44.25
2019-04-16T00:54:54.651Z,47.50
2019-04-16T00:57:23.751Z,51.75
2019-04-16T00:59:56.277Z,44.50
2019-04-16T01:02:23.704Z,55.25
2019-04-16T01:04:52.711Z,51.25
2019-04-16T01:07:21.720Z,45.00
2019-04-16T01:09:50.813Z,50.75
2019-04-16T01:12:19.867Z,51.75
2019-04-16T01:14:48.913Z,52.50
2019-04-16T01:17:17.888Z,51.00
2019-04-16T01:19:46.918Z,57.25
2019-04-16T01:22:16.712Z,46.25
2019-04-16T01:24:45.859Z,47.25
2019-04-16T01:27:15.515Z,46.00
2019-04-16T01:32:48.882Z,46.00
2019-04-16T01:35:51.033Z,46.75
2019-04-16T01:38:34.458Z,53.50
2019-04-16T01:41:09.380Z,50.00
2019-04-16T01:43:38.451Z,51.50
2019-04-16T01:46:07.496Z,49.25
2019-04-16T01:48:38.990Z,53.00
2019-04-16T01:51:07.471Z,45.75
2019-04-16T01:53:36.532Z,47.50
2019-04-16T01:56:05.689Z,51.50
2019-04-16T01:58:34.789Z,59.25
2019-04-16T02:01:03.948Z,52.00
2019-04-16T02:03:32.985Z,49.50
2019-04-16T02:06:01.990Z,52.00
2019-04-16T02:08:31.822Z,56.25
2019-04-16T02:11:01.520Z,53.75
2019-04-16T02:13:30.556Z,48.75
2019-04-16T02:15:59.781Z,50.75
2019-04-16T02:18:29.810Z,54.75
2019-04-16T02:20:59.327Z,55.50
2019-04-16T02:23:28.349Z,42.75
2019-04-16T02:25:57.415Z,54.75
2019-04-16T02:28:28.297Z,52.50
2019-04-16T02:31:00.603Z,55.75
2019-04-16T02:33:29.629Z,56.00
2019-04-16T02:35:58.896Z,46.50
2019-04-16T02:38:27.941Z,62.75
2019-04-16T02:40:57.083Z,54.50
2019-04-16T02:43:26.090Z,46.00
2019-04-16T02:45:58.321Z,42.25
2019-04-16T02:48:25.893Z,52.25
2019-04-16T02:51:06.918Z,48.50
2019-04-16T02:53:46.172Z,52.50
2019-04-16T02:56:42.459Z,71.00
2019-04-16T02:59:15.090Z,58.50
2019-04-16T03:02:02.097Z,58.25
2019-04-16T03:04:36.841Z,50.00
2019-04-16T03:07:05.872Z,56.25
2019-04-16T03:09:39.774Z,54.25
2019-04-16T03:12:09.119Z,55.50
2019-04-16T03:14:38.104Z,57.75
2019-04-16T03:17:32.264Z,45.25
2019-04-16T03:20:07.570Z,49.25
2019-04-16T03:22:36.633Z,52.25
2019-04-16T03:25:12.536Z,50.00
2019-04-16T03:27:37.985Z,52.25
2019-04-16T03:30:07.776Z,57.50
2019-04-16T03:32:48.890Z,57.25
2019-04-16T03:35:18.055Z,54.00
2019-04-16T03:37:47.366Z,55.50
2019-04-16T03:40:18.652Z,59.25
2019-04-16T03:42:47.487Z,50.25
2019-04-16T03:45:16.607Z,63.50
2019-04-16T03:47:48.202Z,59.50
2019-04-16T03:50:16.408Z,52.25
2019-04-16T03:52:45.926Z,55.75
2019-04-16T03:55:14.963Z,53.50
2019-04-16T03:57:43.974Z,55.25
2019-04-16T04:00:14.310Z,55.25
2019-04-16T04:02:43.354Z,49.75
2019-04-16T04:05:12.388Z,54.75
2019-04-16T04:07:44.167Z,54.75
2019-04-16T04:10:12.911Z,49.25
2019-04-16T04:12:42.662Z,55.00
2019-04-16T04:15:13.108Z,52.50
2019-04-16T04:17:42.627Z,54.75
2019-04-16T04:20:14.664Z,55.00
2019-04-16T04:22:42.763Z,58.50
2019-04-16T04:25:11.908Z,51.50
2019-04-16T04:27:43.628Z,59.50
2019-04-16T04:30:12.205Z,56.50
2019-04-16T04:32:41.256Z,57.50
2019-04-16T04:35:11.401Z,52.50
2019-04-16T04:37:40.423Z,46.50
2019-04-16T04:40:09.679Z,54.50
2019-04-16T04:42:38.713Z,54.00
2019-04-16T04:45:09.904Z,57.00
2019-04-16T04:47:38.968Z,50.50
2019-04-16T04:50:08.382Z,49.00
2019-04-16T04:52:37.332Z,59.50
2019-04-16T04:55:06.959Z,45.00
2019-04-16T04:57:36.056Z,55.00
2019-04-16T05:00:08.512Z,57.50
2019-04-16T05:02:36.958Z,63.50
2019-04-16T05:05:16.455Z,50.50
2019-04-16T05:07:46.664Z,58.00
2019-04-16T05:10:15.754Z,55.00
2019-04-16T05:12:44.748Z,58.00
2019-04-16T05:15:14.328Z,61.00
2019-04-16T05:17:43.315Z,64.00
2019-04-16T05:20:15.403Z,58.25
2019-04-16T05:22:43.225Z,53.75
2019-04-16T05:25:12.564Z,48.25
2019-04-16T05:27:41.699Z,48.75
2019-04-16T05:30:10.976Z,53.25
2019-04-16T05:32:40.080Z,45.25
2019-04-16T05:35:10.365Z,61.50
2019-04-16T05:37:39.863Z,48.50
2019-04-16T05:40:10.293Z,60.50
2019-04-16T05:42:39.355Z,54.50
2019-04-16T05:45:08.550Z,53.50
2019-04-16T05:47:37.606Z,52.00
2019-04-16T05:50:08.830Z,55.00
2019-04-16T05:52:37.940Z,57.25
2019-04-16T05:55:17.650Z,59.75
2019-04-16T05:57:47.791Z,59.00
2019-04-16T06:03:01.692Z,58.75
2019-04-16T06:05:30.808Z,60.25
2019-04-16T06:08:10.304Z,57.75
2019-04-16T06:10:39.657Z,51.75
2019-04-16T06:13:45.884Z,54.75
2019-04-16T06:16:31.134Z,55.25
2019-04-16T06:22:14.620Z,49.50
2019-04-16T06:25:09.375Z,55.75
2019-04-16T06:27:54.390Z,54.75
2019-04-16T06:30:48.640Z,59.00
2019-04-16T06:33:39.226Z,48.75
2019-04-16T06:36:26.959Z,54.50
2019-04-16T06:39:01.320Z,55.25
2019-04-16T06:41:58.327Z,45.75
2019-04-16T06:44:30.735Z,55.00
2019-04-16T06:47:17.061Z,48.25
2019-04-16T06:50:02.994Z,52.25
2019-04-16T06:53:09.109Z,47.25
2019-04-16T06:55:44.198Z,54.75
2019-04-16T06:58:18.825Z,46.50
2019-04-16T07:01:23.039Z,56.00
2019-04-16T07:04:06.731Z,53.00
2019-04-16T07:06:53.207Z,57.50
2019-04-16T07:09:41.002Z,62.50
2019-04-16T07:12:07.188Z,56.75
2019-04-16T07:14:36.318Z,44.75
2019-04-16T07:17:09.939Z,50.25
2019-04-16T07:19:39.466Z,45.75
2019-04-16T07:22:09.917Z,50.75
2019-04-16T07:24:39.148Z,49.00
2019-04-16T07:27:12.273Z,50.25
2019-04-16T07:29:53.941Z,54.25
2019-04-16T07:32:34.135Z,52.75
2019-04-16T07:35:31.825Z,54.50
2019-04-16T07:38:36.041Z,53.75
2019-04-16T07:41:12.712Z,45.75
2019-04-16T07:44:07.849Z,46.25
2019-04-16T07:46:52.303Z,59.50
2019-04-16T07:49:35.328Z,46.75
2019-04-16T07:52:25.795Z,49.50
2019-04-16T07:55:23.682Z,48.75
2019-04-16T07:57:53.807Z,46.75
2019-04-16T08:00:22.886Z,42.75
2019-04-16T08:02:53.825Z,49.50
2019-04-16T08:05:22.804Z,48.25
2019-04-16T08:07:52.944Z,49.50
2019-04-16T08:10:22.720Z,46.00
2019-04-16T08:13:03.265Z,50.50
2019-04-16T08:15:32.357Z,50.50
2019-04-16T08:18:01.350Z,53.25
2019-04-16T08:20:31.855Z,46.25
2019-04-16T08:23:03.463Z,50.75
2019-04-16T08:25:34.036Z,52.00
2019-04-16T08:28:06.559Z,51.50
2019-04-16T08:30:39.135Z,44.00
2019-04-16T08:33:06.115Z,58.25
2019-04-16T08:35:35.200Z,52.75
2019-04-16T08:38:04.298Z,53.50
2019-04-16T08:40:33.765Z,52.00
2019-04-16T08:43:02.777Z,52.25
2019-04-16T08:45:31.833Z,46.50
2019-04-16T08:48:00.811Z,47.75
2019-04-16T08:50:29.821Z,47.50
2019-04-16T08:53:00.572Z,57.00
2019-04-16T08:55:29.589Z,56.25
2019-04-16T08:57:58.586Z,50.00
2019-04-16T09:00:27.757Z,48.75
2019-04-16T09:02:59.206Z,48.75
2019-04-16T09:05:28.524Z,53.75
2019-04-16T09:08:12.660Z,51.50
2019-04-16T09:10:33.995Z,46.50
2019-04-16T09:13:05.564Z,57.50
2019-04-16T09:15:35.815Z,58.25
2019-04-16T09:18:16.224Z,54.50
2019-04-16T09:20:45.398Z,51.25
2019-04-16T09:23:14.401Z,57.75
2019-04-16T09:26:13.038Z,60.25
2019-04-16T09:28:53.662Z,58.50
2019-04-16T09:31:37.909Z,56.75
2019-04-16T09:34:28.680Z,58.75
2019-04-16T09:37:16.703Z,53.50
2019-04-16T09:40:18.540Z,60.00
2019-04-16T09:42:47.943Z,53.25
2019-04-16T09:45:18.683Z,52.25
2019-04-16T09:47:47.674Z,53.00
2019-04-16T09:50:16.939Z,49.75
2019-04-16T09:52:46.012Z,57.75
2019-04-16T09:55:19.159Z,55.25
2019-04-16T09:57:46.461Z,52.75
2019-04-16T10:00:20.471Z,52.00
2019-04-16T10:02:49.970Z,48.25
2019-04-16T10:05:19.124Z,50.75
2019-04-16T10:07:48.155Z,50.75
2019-04-16T10:10:17.268Z,60.00
2019-04-16T10:12:46.359Z,51.75
2019-04-16T10:15:17.537Z,54.25
2019-04-16T10:17:46.780Z,54.25
2019-04-16T10:20:15.959Z,55.25
2019-04-16T10:22:44.956Z,54.00
2019-04-16T10:25:15.325Z,58.25
2019-04-16T10:27:47.105Z,55.50
2019-04-16T10:30:32.716Z,58.00
2019-04-16T10:33:01.709Z,56.75
2019-04-16T10:35:30.810Z,58.75
2019-04-16T10:38:04.941Z,52.75
2019-04-16T10:40:45.990Z,52.00
2019-04-16T10:43:44.445Z,57.00
2019-04-16T10:46:14.283Z,51.75
2019-04-16T10:48:58.592Z,56.50
2019-04-16T10:51:32.042Z,54.25
2019-04-16T10:54:12.848Z,50.25
2019-04-16T10:56:59.847Z,52.00
2019-04-16T10:59:46.706Z,63.25
2019-04-16T11:02:33.416Z,55.25
2019-04-16T11:05:09.473Z,57.00
2019-04-16T11:07:38.986Z,58.75
2019-04-16T11:10:11.676Z,49.25
2019-04-16T11:12:39.481Z,50.50
2019-04-16T11:15:08.957Z,57.00
2019-04-16T11:17:38.064Z,47.75
2019-04-16T11:20:07.258Z,51.25
2019-04-16T11:22:36.251Z,52.00
2019-04-16T11:25:05.804Z,54.25
2019-04-16T11:27:34.891Z,60.00
2019-04-16T11:30:05.087Z,52.75
2019-04-16T11:32:39.216Z,55.25
2019-04-16T11:35:05.114Z,52.75
2019-04-16T11:37:36.241Z,59.50
2019-04-16T11:40:05.534Z,62.25
2019-04-16T11:42:34.608Z,57.25
2019-04-16T11:45:03.883Z,58.50
2019-04-16T11:47:34.129Z,57.75
2019-04-16T11:50:03.971Z,55.25
2019-04-16T11:52:34.702Z,58.50
2019-04-16T11:55:04.012Z,53.00
2019-04-16T11:57:33.987Z,59.25
2019-04-16T12:02:42.809Z,54.50
2019-04-16T12:05:26.416Z,49.75
2019-04-16T12:08:18.242Z,59.00
2019-04-16T12:11:12.303Z,61.75
2019-04-16T12:14:04.140Z,57.25
2019-04-16T12:16:50.304Z,54.00
2019-04-16T12:19:37.177Z,58.25
2019-04-16T12:22:25.222Z,55.25
2019-04-16T12:25:12.146Z,53.50
2019-04-16T12:27:54.161Z,53.00
2019-04-16T12:30:32.262Z,56.50
2019-04-16T12:33:20.385Z,62.00
2019-04-16T12:36:14.748Z,57.25
2019-04-16T12:38:58.451Z,52.00
2019-04-16T12:41:47.897Z,55.50
2019-04-16T12:44:45.552Z,54.50
2019-04-16T12:47:37.918Z,52.50
2019-04-16T12:50:16.968Z,54.75
2019-04-16T12:53:02.319Z,57.25
2019-04-16T12:55:38.319Z,54.00
2019-04-16T12:58:11.778Z,61.75
2019-04-16T13:00:54.255Z,58.00
2019-04-16T13:03:46.433Z,58.75
2019-04-16T13:06:26.171Z,50.50
2019-04-16T13:09:29.645Z,52.50
2019-04-16T13:12:12.764Z,56.25
2019-04-16T13:15:01.551Z,57.75
2019-04-16T13:17:50.808Z,55.25
2019-04-16T13:23:33.150Z,58.75
2019-04-16T13:26:11.839Z,61.25
2019-04-16T13:28:39.295Z,60.25
2019-04-16T13:31:08.353Z,52.25
2019-04-16T13:33:37.471Z,55.75
2019-04-16T13:36:06.618Z,60.25
2019-04-16T13:38:40.394Z,58.50
2019-04-16T13:41:08.645Z,56.50
2019-04-16T13:43:42.134Z,61.00
2019-04-16T13:46:11.122Z,60.00
2019-04-16T13:49:01.857Z,57.00
2019-04-16T13:51:31.496Z,61.50
2019-04-16T13:54:09.060Z,54.25
2019-04-16T13:56:43.395Z,61.00
2019-04-16T13:59:34.388Z,59.25
2019-04-16T14:02:17.914Z,59.00
2019-04-16T14:07:13.669Z,64.00
2019-04-16T14:09:44.343Z,62.25
2019-04-16T14:12:13.691Z,62.50
2019-04-16T14:14:42.724Z,60.25
2019-04-16T14:17:17.719Z,57.75
2019-04-16T14:19:44.209Z,58.75
2019-04-16T14:22:13.290Z,65.25
2019-04-16T14:24:42.380Z,61.75
2019-04-16T14:27:13.965Z,54.25
2019-04-16T14:29:42.220Z,57.25
2019-04-16T14:32:11.324Z,61.25
2019-04-16T14:34:49.375Z,65.50
2019-04-16T14:39:52.226Z,64.50
2019-04-16T14:42:22.245Z,58.25
2019-04-16T14:44:56.064Z,57.00
2019-04-16T14:47:25.144Z,62.75
2019-04-16T14:49:54.181Z,64.75
2019-04-16T14:52:23.246Z,62.00
2019-04-16T14:55:01.165Z,66.25
2019-04-16T14:57:30.246Z,62.00
2019-04-16T15:00:09.718Z,67.75
2019-04-16T15:02:52.561Z,68.25
2019-04-16T15:05:50.124Z,61.25
2019-04-16T15:08:38.076Z,69.00
2019-04-16T15:11:38.649Z,65.00
2019-04-16T15:14:14.699Z,65.50
2019-04-16T15:16:50.933Z,67.50
2019-04-16T15:19:43.109Z,64.50
2019-04-16T15:22:34.237Z,65.00
2019-04-16T15:25:13.135Z,59.50
2019-04-16T15:27:55.971Z,69.50
2019-04-16T15:30:37.346Z,64.00
2019-04-16T15:33:24.178Z,67.75
2019-04-16T15:35:56.678Z,65.50
2019-04-16T15:38:50.910Z,65.75
2019-04-16T15:41:29.653Z,64.50
2019-04-16T15:44:07.874Z,64.00
2019-04-16T15:46:54.833Z,68.25
2019-04-16T15:49:42.848Z,65.25
2019-04-16T15:52:27.601Z,62.25
2019-04-16T15:55:33.992Z,68.75
2019-04-16T15:58:24.972Z,67.00
2019-04-16T16:01:03.425Z,62.25
2019-04-16T16:03:50.044Z,66.25
2019-04-16T16:06:22.834Z,65.00
2019-04-16T16:09:10.002Z,67.75
2019-04-16T16:11:48.074Z,61.25
2019-04-16T16:14:16.529Z,66.25
2019-04-16T16:16:47.800Z,67.00
2019-04-16T16:19:16.231Z,74.50
2019-04-16T16:21:45.262Z,67.75
2019-04-16T16:24:14.264Z,74.75
2019-04-16T16:26:43.319Z,68.50
2019-04-16T16:29:12.691Z,65.50
2019-04-16T16:31:41.740Z,69.25
2019-04-16T16:34:10.871Z,68.50
2019-04-16T16:36:43.830Z,68.25
2019-04-16T16:39:12.919Z,65.25
2019-04-16T16:41:41.956Z,67.00
2019-04-16T16:44:11.734Z,63.50
2019-04-16T16:46:57.240Z,68.00
2019-04-16T16:49:22.752Z,69.50
2019-04-16T16:52:09.482Z,59.50
2019-04-16T16:54:39.021Z,67.00
2019-04-16T16:57:13.901Z,67.75
2019-04-16T16:59:50.415Z,64.00
2019-04-16T17:04:58.035Z,65.25
2019-04-16T17:07:27.055Z,70.00
2019-04-16T17:09:57.620Z,70.75
2019-04-16T17:12:26.787Z,68.00
2019-04-16T17:14:55.903Z,66.00
2019-04-16T17:17:24.902Z,64.50
2019-04-16T17:19:53.984Z,68.75
2019-04-16T17:22:23.021Z,67.50
2019-04-16T17:24:52.015Z,70.50
2019-04-16T17:27:21.011Z,70.50
2019-04-16T17:29:50.899Z,73.25
2019-04-16T17:32:20.202Z,68.50
2019-04-16T17:34:49.193Z,65.25
2019-04-16T17:37:21.360Z,66.25
2019-04-16T17:39:52.473Z,72.00
2019-04-16T17:42:26.420Z,66.00
2019-04-16T17:45:31.356Z,69.75
2019-04-16T17:48:12.516Z,68.75
2019-04-16T17:50:52.887Z,66.25
2019-04-16T17:53:50.243Z,68.00
2019-04-16T17:56:38.289Z,68.00
2019-04-16T18:05:23.388Z,61.75
2019-04-16T18:08:25.446Z,66.50
2019-04-16T18:11:15.068Z,70.50
2019-04-16T18:13:57.375Z,66.25
2019-04-16T18:16:50.085Z,70.75
2019-04-16T18:19:47.271Z,68.00
2019-04-16T18:22:25.250Z,70.50
2019-04-16T18:25:13.191Z,69.50
2019-04-16T18:27:50.102Z,69.75
2019-04-16T18:30:38.131Z,66.00
2019-04-16T18:33:29.902Z,70.75
2019-04-16T18:36:21.395Z,66.00
2019-04-16T18:39:09.367Z,69.00
2019-04-16T18:41:57.502Z,56.75
2019-04-16T18:44:44.339Z,60.00
2019-04-16T18:47:44.697Z,63.00
2019-04-16T18:50:22.205Z,68.25
2019-04-16T18:52:48.430Z,65.00
2019-04-16T18:55:17.466Z,63.75
2019-04-16T18:57:46.452Z,65.25
2019-04-16T19:00:35.402Z,69.00
2019-04-16T19:05:42.663Z,68.75
2019-04-16T19:08:11.991Z,69.50
2019-04-16T19:10:41.120Z,66.50
2019-04-16T19:13:11.757Z,65.50
2019-04-16T19:15:40.783Z,60.00
2019-04-16T19:18:18.906Z,61.00
2019-04-16T19:20:40.712Z,75.25
2019-04-16T19:23:11.144Z,71.75
2019-04-16T19:28:15.056Z,68.50
2019-04-16T19:30:44.156Z,62.25
2019-04-16T19:33:13.159Z,63.75
2019-04-16T19:35:42.134Z,72.50
2019-04-16T19:38:11.151Z,70.50
2019-04-16T19:40:40.205Z,68.00
2019-04-16T19:43:10.223Z,71.00
2019-04-16T19:45:40.605Z,72.50
2019-04-16T19:48:10.126Z,71.50
2019-04-16T19:50:39.143Z,75.50
2019-04-16T19:53:13.784Z,63.75
2019-04-16T19:55:38.997Z,77.25
2019-04-16T19:58:08.146Z,68.00
2019-04-16T20:00:37.368Z,70.25
2019-04-16T20:03:08.424Z,70.75
2019-04-16T20:05:37.392Z,59.50
2019-04-16T20:08:06.843Z,62.25
2019-04-16T20:10:35.960Z,68.50
2019-04-16T20:13:05.205Z,56.75
2019-04-16T20:15:34.389Z,49.50
2019-04-16T20:18:06.577Z,49.00
2019-04-16T20:20:34.198Z,59.75
2019-04-16T20:23:03.201Z,53.00
2019-04-16T20:25:32.197Z,51.00
2019-04-16T20:28:01.450Z,47.25
2019-04-16T20:30:30.523Z,50.00
2019-04-16T20:32:59.559Z,46.00
2019-04-16T20:35:31.318Z,48.00
2019-04-16T20:38:00.408Z,54.75
2019-04-16T20:40:29.407Z,55.50
2019-04-16T20:42:59.591Z,41.50
2019-04-16T20:45:28.574Z,47.50
2019-04-16T20:47:57.628Z,51.00
2019-04-16T20:50:26.726Z,45.00
2019-04-16T20:52:55.783Z,51.75
2019-04-16T20:55:24.879Z,49.50
2019-04-16T20:57:55.387Z,46.50
2019-04-16T21:00:28.683Z,46.75
2019-04-16T21:03:02.247Z,44.00
2019-04-16T21:05:35.514Z,42.75
2019-04-16T21:08:00.572Z,56.25
2019-04-16T21:10:29.642Z,42.25
2019-04-16T21:12:58.614Z,45.25
2019-04-16T21:15:28.362Z,49.25
2019-04-16T21:17:57.408Z,51.50
2019-04-16T21:20:26.457Z,59.00
2019-04-16T21:22:57.409Z,56.25
2019-04-16T21:25:26.146Z,55.50
2019-04-16T21:28:02.056Z,47.50
2019-04-16T21:30:31.068Z,46.00
2019-04-16T21:35:51.457Z,40.75
2019-04-16T21:38:35.600Z,48.75
2019-04-16T21:41:04.739Z,62.00
2019-04-16T21:43:35.774Z,50.75
2019-04-16T21:46:04.441Z,50.00
2019-04-16T21:48:34.735Z,48.50
2019-04-16T21:51:03.730Z,54.00
2019-04-16T21:53:32.823Z,56.50
2019-04-16T21:56:06.351Z,47.25
2019-04-16T21:58:32.631Z,48.50
2019-04-16T22:01:17.993Z,52.75
2019-04-16T22:03:50.967Z,51.00
2019-04-16T22:06:20.987Z,59.75
2019-04-16T22:08:50.100Z,51.00
2019-04-16T22:11:19.096Z,52.00
2019-04-16T22:13:50.684Z,56.50
2019-04-16T22:16:18.824Z,50.00
2019-04-16T22:18:47.935Z,53.00
2019-04-16T22:21:16.980Z,57.75
2019-04-16T22:23:50.143Z,55.00
2019-04-16T22:26:16.720Z,49.25
2019-04-16T22:28:45.757Z,60.25
2019-04-16T22:31:14.738Z,52.00
2019-04-16T22:33:43.736Z,50.00
2019-04-16T22:36:12.848Z,53.75
2019-04-16T22:38:44.236Z,54.50
2019-04-16T22:44:14.518Z,46.75
2019-04-16T22:46:52.915Z,53.25
2019-04-16T22:49:22.479Z,57.75
2019-04-16T22:51:52.321Z,49.75
2019-04-16T22:54:21.650Z,47.50
2019-04-16T22:57:01.427Z,49.25
2019-04-16T22:59:31.187Z,52.00
2019-04-16T23:02:00.464Z,53.75
2019-04-16T23:04:29.722Z,45.25
2019-04-16T23:06:58.774Z,45.25
2019-04-16T23:09:29.661Z,50.25
2019-04-16T23:11:58.658Z,53.50
2019-04-16T23:14:27.695Z,51.00
2019-04-16T23:16:57.018Z,57.50
2019-04-16T23:19:26.031Z,50.75
2019-04-16T23:21:55.029Z,55.25
2019-04-16T23:24:24.237Z,51.75
2019-04-16T23:26:53.290Z,60.25
2019-04-16T23:29:22.348Z,44.25
2019-04-16T23:31:55.052Z,51.25
2019-04-16T23:34:22.078Z,49.25
2019-04-16T23:36:51.058Z,52.00
2019-04-16T23:39:20.090Z,51.50
2019-04-16T23:41:49.145Z,47.25
2019-04-16T23:44:34.974Z,45.50
2019-04-16T23:47:19.306Z,53.75
2019-04-16T23:49:54.399Z,45.25
2019-04-16T23:52:28.048Z,52.50
2019-04-16T23:55:02.768Z,52.50
2019-04-16T23:57:40.530Z,51.00
